sensor_id;sensor_type;location;lat;lon;timestamp;pressure;altitude;pressure_sealevel;temperature;humidity
56568;BME280;42456;49.956;20.004;2023-02-19T00:01:28;98043.44;;;7.19;83.67
56568;BME280;42456;49.956;20.004;2023-02-19T00:04:04;98044.30;;;7.18;83.72
56568;BME280;42456;49.956;20.004;2023-02-19T00:06:32;98043.24;;;7.14;83.56
56568;BME280;42456;49.956;20.004;2023-02-19T00:09:00;98036.63;;;7.12;83.72
56568;BME280;42456;49.956;20.004;2023-02-19T00:11:29;98038.95;;;7.10;83.87
56568;BME280;42456;49.956;20.004;2023-02-19T00:13:57;98035.79;;;7.06;84.05
56568;BME280;42456;49.956;20.004;2023-02-19T00:16:27;98032.67;;;7.03;84.12
56568;BME280;42456;49.956;20.004;2023-02-19T00:18:56;98022.88;;;6.99;84.15
56568;BME280;42456;49.956;20.004;2023-02-19T00:21:24;98028.66;;;6.97;84.05
56568;BME280;42456;49.956;20.004;2023-02-19T00:23:55;98016.70;;;6.95;84.34
56568;BME280;42456;49.956;20.004;2023-02-19T00:26:22;98019.63;;;6.93;84.21
56568;BME280;42456;49.956;20.004;2023-02-19T00:28:50;98018.34;;;6.92;84.39
56568;BME280;42456;49.956;20.004;2023-02-19T00:31:23;98028.23;;;6.91;84.45
56568;BME280;42456;49.956;20.004;2023-02-19T00:33:53;98029.90;;;6.89;84.46
56568;BME280;42456;49.956;20.004;2023-02-19T00:36:21;98030.87;;;6.87;84.67
56568;BME280;42456;49.956;20.004;2023-02-19T00:38:49;98031.30;;;6.85;84.67
56568;BME280;42456;49.956;20.004;2023-02-19T00:41:17;98028.57;;;6.84;84.76
56568;BME280;42456;49.956;20.004;2023-02-19T00:43:48;98024.15;;;6.83;84.83
56568;BME280;42456;49.956;20.004;2023-02-19T00:46:18;98016.79;;;6.80;85.19
56568;BME280;42456;49.956;20.004;2023-02-19T00:48:45;98011.40;;;6.78;84.93
56568;BME280;42456;49.956;20.004;2023-02-19T00:51:13;98004.83;;;6.76;85.02
56568;BME280;42456;49.956;20.004;2023-02-19T00:53:40;98001.11;;;6.74;84.81
56568;BME280;42456;49.956;20.004;2023-02-19T00:56:08;98002.89;;;6.71;84.82
56568;BME280;42456;49.956;20.004;2023-02-19T00:58:35;98005.77;;;6.65;84.84
56568;BME280;42456;49.956;20.004;2023-02-19T01:01:03;97999.65;;;6.61;84.89
56568;BME280;42456;49.956;20.004;2023-02-19T01:03:35;97998.07;;;6.58;85.00
56568;BME280;42456;49.956;20.004;2023-02-19T01:06:04;97994.98;;;6.56;85.19
56568;BME280;42456;49.956;20.004;2023-02-19T01:08:32;97997.86;;;6.52;85.22
56568;BME280;42456;49.956;20.004;2023-02-19T01:11:00;97994.20;;;6.49;85.45
56568;BME280;42456;49.956;20.004;2023-02-19T01:13:28;97995.14;;;6.46;85.65
56568;BME280;42456;49.956;20.004;2023-02-19T01:16:22;97998.49;;;6.45;85.80
56568;BME280;42456;49.956;20.004;2023-02-19T01:18:53;97993.67;;;6.43;85.72
56568;BME280;42456;49.956;20.004;2023-02-19T01:21:22;97992.10;;;6.42;85.59
56568;BME280;42456;49.956;20.004;2023-02-19T01:23:51;97997.44;;;6.42;85.85
56568;BME280;42456;49.956;20.004;2023-02-19T01:26:20;97997.36;;;6.41;85.57
56568;BME280;42456;49.956;20.004;2023-02-19T01:28:47;97992.29;;;6.41;85.44
56568;BME280;42456;49.956;20.004;2023-02-19T01:31:17;97991.02;;;6.40;85.80
56568;BME280;42456;49.956;20.004;2023-02-19T01:33:46;97985.14;;;6.39;85.72
56568;BME280;42456;49.956;20.004;2023-02-19T01:36:14;97988.27;;;6.37;85.61
56568;BME280;42456;49.956;20.004;2023-02-19T01:38:42;97987.84;;;6.36;86.04
56568;BME280;42456;49.956;20.004;2023-02-19T01:41:12;97986.36;;;6.35;85.64
56568;BME280;42456;49.956;20.004;2023-02-19T01:43:55;97983.09;;;6.35;85.82
56568;BME280;42456;49.956;20.004;2023-02-19T01:46:26;97988.08;;;6.36;85.95
56568;BME280;42456;49.956;20.004;2023-02-19T01:48:56;97986.96;;;6.37;86.01
56568;BME280;42456;49.956;20.004;2023-02-19T01:51:25;97989.48;;;6.36;86.08
56568;BME280;42456;49.956;20.004;2023-02-19T01:53:56;97991.10;;;6.37;86.15
56568;BME280;42456;49.956;20.004;2023-02-19T01:56:26;97994.75;;;6.38;86.14
56568;BME280;42456;49.956;20.004;2023-02-19T01:58:54;97993.78;;;6.39;86.29
56568;BME280;42456;49.956;20.004;2023-02-19T02:01:21;97988.13;;;6.39;86.16
56568;BME280;42456;49.956;20.004;2023-02-19T02:03:48;97983.53;;;6.39;86.30
56568;BME280;42456;49.956;20.004;2023-02-19T02:06:29;97981.02;;;6.39;86.41
56568;BME280;42456;49.956;20.004;2023-02-19T02:08:57;97983.66;;;6.38;86.27
56568;BME280;42456;49.956;20.004;2023-02-19T02:11:41;97984.03;;;6.38;86.66
56568;BME280;42456;49.956;20.004;2023-02-19T02:14:10;97985.60;;;6.37;86.25
56568;BME280;42456;49.956;20.004;2023-02-19T02:22:21;97983.34;;;6.36;86.53
56568;BME280;42456;49.956;20.004;2023-02-19T02:25:15;97979.73;;;6.37;86.41
56568;BME280;42456;49.956;20.004;2023-02-19T02:30:47;97975.67;;;6.37;86.76
56568;BME280;42456;49.956;20.004;2023-02-19T02:34:05;97977.53;;;6.37;86.54
56568;BME280;42456;49.956;20.004;2023-02-19T02:36:34;97976.95;;;6.38;86.57
56568;BME280;42456;49.956;20.004;2023-02-19T02:39:05;97975.74;;;6.38;86.76
56568;BME280;42456;49.956;20.004;2023-02-19T02:41:33;97972.64;;;6.41;86.81
56568;BME280;42456;49.956;20.004;2023-02-19T02:44:00;97972.48;;;6.40;86.72
56568;BME280;42456;49.956;20.004;2023-02-19T02:46:33;97971.79;;;6.40;86.75
56568;BME280;42456;49.956;20.004;2023-02-19T02:49:04;97974.30;;;6.40;86.60
56568;BME280;42456;49.956;20.004;2023-02-19T02:54:11;97966.70;;;6.39;87.02
56568;BME280;42456;49.956;20.004;2023-02-19T02:56:54;97962.83;;;6.38;86.83
56568;BME280;42456;49.956;20.004;2023-02-19T02:59:24;97966.50;;;6.38;86.91
56568;BME280;42456;49.956;20.004;2023-02-19T03:07:53;97958.52;;;6.39;87.31
56568;BME280;42456;49.956;20.004;2023-02-19T03:10:27;97950.88;;;6.39;87.33
56568;BME280;42456;49.956;20.004;2023-02-19T03:12:59;97950.98;;;6.39;87.44
56568;BME280;42456;49.956;20.004;2023-02-19T03:15:54;97950.43;;;6.40;87.17
56568;BME280;42456;49.956;20.004;2023-02-19T03:18:37;97948.76;;;6.40;87.63
56568;BME280;42456;49.956;20.004;2023-02-19T03:21:21;97943.45;;;6.41;87.71
56568;BME280;42456;49.956;20.004;2023-02-19T03:23:49;97944.46;;;6.42;87.63
56568;BME280;42456;49.956;20.004;2023-02-19T03:26:32;97945.84;;;6.42;87.62
56568;BME280;42456;49.956;20.004;2023-02-19T03:29:00;97936.44;;;6.42;87.62
56568;BME280;42456;49.956;20.004;2023-02-19T03:31:43;97935.70;;;6.42;87.75
56568;BME280;42456;49.956;20.004;2023-02-19T03:34:15;97933.71;;;6.42;87.63
56568;BME280;42456;49.956;20.004;2023-02-19T03:36:50;97927.11;;;6.41;87.52
56568;BME280;42456;49.956;20.004;2023-02-19T03:39:21;97922.74;;;6.41;87.82
56568;BME280;42456;49.956;20.004;2023-02-19T03:55:26;97913.02;;;6.45;87.87
56568;BME280;42456;49.956;20.004;2023-02-19T03:58:19;97904.05;;;6.44;87.82
56568;BME280;42456;49.956;20.004;2023-02-19T04:01:05;97903.74;;;6.44;87.88
56568;BME280;42456;49.956;20.004;2023-02-19T04:06:22;97903.27;;;6.44;87.80
56568;BME280;42456;49.956;20.004;2023-02-19T04:08:53;97904.36;;;6.44;87.96
56568;BME280;42456;49.956;20.004;2023-02-19T04:11:23;97903.74;;;6.44;88.18
56568;BME280;42456;49.956;20.004;2023-02-19T04:16:39;97904.83;;;6.44;88.26
56568;BME280;42456;49.956;20.004;2023-02-19T04:19:11;97906.85;;;6.43;88.20
56568;BME280;42456;49.956;20.004;2023-02-19T04:21:40;97904.44;;;6.44;88.43
56568;BME280;42456;49.956;20.004;2023-02-19T04:24:19;97900.85;;;6.44;88.35
56568;BME280;42456;49.956;20.004;2023-02-19T04:26:48;97897.64;;;6.44;88.35
56568;BME280;42456;49.956;20.004;2023-02-19T04:29:15;97892.83;;;6.44;88.42
56568;BME280;42456;49.956;20.004;2023-02-19T04:31:41;97887.02;;;6.44;88.35
56568;BME280;42456;49.956;20.004;2023-02-19T04:34:08;97881.14;;;6.44;88.45
56568;BME280;42456;49.956;20.004;2023-02-19T04:36:35;97880.23;;;6.44;88.27
56568;BME280;42456;49.956;20.004;2023-02-19T04:39:02;97879.33;;;6.44;88.42
56568;BME280;42456;49.956;20.004;2023-02-19T04:41:28;97878.78;;;6.44;88.66
56568;BME280;42456;49.956;20.004;2023-02-19T04:43:55;97865.09;;;6.43;88.26
56568;BME280;42456;49.956;20.004;2023-02-19T04:46:22;97863.36;;;6.42;88.62
56568;BME280;42456;49.956;20.004;2023-02-19T04:48:49;97870.77;;;6.41;88.70
56568;BME280;42456;49.956;20.004;2023-02-19T04:51:16;97867.69;;;6.40;88.70
56568;BME280;42456;49.956;20.004;2023-02-19T04:53:43;97869.66;;;6.40;88.65
56568;BME280;42456;49.956;20.004;2023-02-19T04:56:12;97872.09;;;6.39;88.44
56568;BME280;42456;49.956;20.004;2023-02-19T04:58:39;97872.65;;;6.39;88.58
56568;BME280;42456;49.956;20.004;2023-02-19T05:01:08;97877.42;;;6.38;88.93
56568;BME280;42456;49.956;20.004;2023-02-19T05:03:36;97872.71;;;6.36;88.79
56568;BME280;42456;49.956;20.004;2023-02-19T05:06:08;97874.69;;;6.36;88.87
56568;BME280;42456;49.956;20.004;2023-02-19T05:08:36;97876.32;;;6.35;88.63
56568;BME280;42456;49.956;20.004;2023-02-19T05:11:05;97872.48;;;6.35;88.90
56568;BME280;42456;49.956;20.004;2023-02-19T05:13:32;97873.73;;;6.34;89.00
56568;BME280;42456;49.956;20.004;2023-02-19T05:16:05;97871.89;;;6.33;88.92
56568;BME280;42456;49.956;20.004;2023-02-19T05:18:33;97866.88;;;6.33;88.65
56568;BME280;42456;49.956;20.004;2023-02-19T05:21:00;97861.83;;;6.32;88.71
56568;BME280;42456;49.956;20.004;2023-02-19T05:23:27;97855.85;;;6.32;89.07
56568;BME280;42456;49.956;20.004;2023-02-19T05:25:54;97860.91;;;6.31;88.78
56568;BME280;42456;49.956;20.004;2023-02-19T05:28:21;97858.80;;;6.30;88.81
56568;BME280;42456;49.956;20.004;2023-02-19T05:30:55;97854.15;;;6.30;88.69
56568;BME280;42456;49.956;20.004;2023-02-19T05:33:24;97851.55;;;6.29;88.96
56568;BME280;42456;49.956;20.004;2023-02-19T05:35:53;97840.76;;;6.29;89.04
56568;BME280;42456;49.956;20.004;2023-02-19T05:38:21;97841.14;;;6.29;89.06
56568;BME280;42456;49.956;20.004;2023-02-19T05:40:49;97833.95;;;6.28;89.04
56568;BME280;42456;49.956;20.004;2023-02-19T05:43:16;97834.39;;;6.28;89.09
56568;BME280;42456;49.956;20.004;2023-02-19T05:45:43;97833.16;;;6.28;89.03
56568;BME280;42456;49.956;20.004;2023-02-19T05:48:10;97831.40;;;6.28;88.76
56568;BME280;42456;49.956;20.004;2023-02-19T05:50:38;97825.44;;;6.27;88.95
56568;BME280;42456;49.956;20.004;2023-02-19T05:53:05;97822.52;;;6.27;88.83
56568;BME280;42456;49.956;20.004;2023-02-19T05:55:35;97815.81;;;6.27;88.95
56568;BME280;42456;49.956;20.004;2023-02-19T05:58:02;97811.95;;;6.28;89.11
56568;BME280;42456;49.956;20.004;2023-02-19T06:00:31;97811.41;;;6.29;88.98
56568;BME280;42456;49.956;20.004;2023-02-19T06:02:58;97811.40;;;6.29;88.88
56568;BME280;42456;49.956;20.004;2023-02-19T06:05:25;97816.48;;;6.30;89.28
56568;BME280;42456;49.956;20.004;2023-02-19T06:07:52;97817.48;;;6.30;89.11
56568;BME280;42456;49.956;20.004;2023-02-19T06:10:19;97827.61;;;6.32;89.26
56568;BME280;42456;49.956;20.004;2023-02-19T06:12:46;97831.91;;;6.32;89.06
56568;BME280;42456;49.956;20.004;2023-02-19T06:15:12;97832.05;;;6.33;89.44
56568;BME280;42456;49.956;20.004;2023-02-19T06:17:39;97827.90;;;6.34;89.17
56568;BME280;42456;49.956;20.004;2023-02-19T06:20:06;97830.63;;;6.36;89.26
56568;BME280;42456;49.956;20.004;2023-02-19T06:22:33;97822.90;;;6.37;89.43
56568;BME280;42456;49.956;20.004;2023-02-19T06:25:00;97812.83;;;6.38;89.36
56568;BME280;42456;49.956;20.004;2023-02-19T06:27:27;97807.73;;;6.41;89.52
56568;BME280;42456;49.956;20.004;2023-02-19T06:29:54;97795.70;;;6.43;89.75
56568;BME280;42456;49.956;20.004;2023-02-19T06:32:21;97790.36;;;6.44;89.43
56568;BME280;42456;49.956;20.004;2023-02-19T06:34:49;97785.52;;;6.45;89.56
56568;BME280;42456;49.956;20.004;2023-02-19T06:37:15;97794.73;;;6.47;89.29
56568;BME280;42456;49.956;20.004;2023-02-19T06:39:42;97789.58;;;6.47;89.53
56568;BME280;42456;49.956;20.004;2023-02-19T06:42:09;97792.22;;;6.48;89.33
56568;BME280;42456;49.956;20.004;2023-02-19T06:44:36;97797.38;;;6.49;89.46
56568;BME280;42456;49.956;20.004;2023-02-19T06:47:03;97802.38;;;6.52;89.77
56568;BME280;42456;49.956;20.004;2023-02-19T06:49:29;97806.19;;;6.55;89.65
56568;BME280;42456;49.956;20.004;2023-02-19T06:51:56;97806.98;;;6.57;89.59
56568;BME280;42456;49.956;20.004;2023-02-19T06:54:25;97805.58;;;6.59;89.82
56568;BME280;42456;49.956;20.004;2023-02-19T06:56:52;97805.80;;;6.60;89.50
56568;BME280;42456;49.956;20.004;2023-02-19T06:59:19;97802.75;;;6.62;89.43
56568;BME280;42456;49.956;20.004;2023-02-19T07:01:45;97804.52;;;6.64;89.41
56568;BME280;42456;49.956;20.004;2023-02-19T07:04:12;97806.02;;;6.65;89.54
56568;BME280;42456;49.956;20.004;2023-02-19T07:06:40;97807.13;;;6.66;89.51
56568;BME280;42456;49.956;20.004;2023-02-19T07:09:07;97808.88;;;6.66;89.45
56568;BME280;42456;49.956;20.004;2023-02-19T07:11:37;97808.85;;;6.67;89.64
56568;BME280;42456;49.956;20.004;2023-02-19T07:14:07;97810.52;;;6.68;89.47
56568;BME280;42456;49.956;20.004;2023-02-19T07:16:36;97812.70;;;6.69;89.60
56568;BME280;42456;49.956;20.004;2023-02-19T07:19:04;97813.14;;;6.70;89.51
56568;BME280;42456;49.956;20.004;2023-02-19T07:21:31;97811.89;;;6.71;89.45
56568;BME280;42456;49.956;20.004;2023-02-19T07:24:03;97804.11;;;6.73;89.60
56568;BME280;42456;49.956;20.004;2023-02-19T07:26:31;97800.52;;;6.77;89.58
56568;BME280;42456;49.956;20.004;2023-02-19T07:28:58;97796.13;;;6.79;89.62
56568;BME280;42456;49.956;20.004;2023-02-19T07:31:25;97793.71;;;6.81;89.54
56568;BME280;42456;49.956;20.004;2023-02-19T07:33:53;97793.70;;;6.83;89.72
56568;BME280;42456;49.956;20.004;2023-02-19T07:36:22;97790.20;;;6.85;89.82
56568;BME280;42456;49.956;20.004;2023-02-19T07:38:53;97796.99;;;6.87;89.51
56568;BME280;42456;49.956;20.004;2023-02-19T07:41:21;97796.11;;;6.88;89.49
56568;BME280;42456;49.956;20.004;2023-02-19T07:43:49;97801.68;;;6.89;89.46
56568;BME280;42456;49.956;20.004;2023-02-19T07:46:16;97800.67;;;6.91;89.77
56568;BME280;42456;49.956;20.004;2023-02-19T07:48:43;97802.40;;;6.92;89.55
56568;BME280;42456;49.956;20.004;2023-02-19T07:51:13;97808.45;;;6.92;89.54
56568;BME280;42456;49.956;20.004;2023-02-19T07:53:42;97806.27;;;6.93;89.53
56568;BME280;42456;49.956;20.004;2023-02-19T07:56:10;97804.38;;;6.96;89.69
56568;BME280;42456;49.956;20.004;2023-02-19T07:58:39;97796.50;;;7.00;89.57
56568;BME280;42456;49.956;20.004;2023-02-19T08:01:08;97801.08;;;7.05;89.67
56568;BME280;42456;49.956;20.004;2023-02-19T08:03:37;97794.26;;;7.12;89.89
56568;BME280;42456;49.956;20.004;2023-02-19T08:06:04;97790.25;;;7.20;89.73
56568;BME280;42456;49.956;20.004;2023-02-19T08:08:31;97791.20;;;7.29;89.65
56568;BME280;42456;49.956;20.004;2023-02-19T08:11:00;97791.81;;;7.40;89.91
56568;BME280;42456;49.956;20.004;2023-02-19T08:13:41;97786.95;;;7.52;89.75
56568;BME280;42456;49.956;20.004;2023-02-19T08:16:11;97783.38;;;7.60;89.33
56568;BME280;42456;49.956;20.004;2023-02-19T08:18:52;97784.70;;;7.66;89.13
56568;BME280;42456;49.956;20.004;2023-02-19T08:21:19;97780.59;;;7.70;88.97
56568;BME280;42456;49.956;20.004;2023-02-19T08:23:46;97779.43;;;7.72;88.69
56568;BME280;42456;49.956;20.004;2023-02-19T08:26:16;97774.73;;;7.75;88.50
56568;BME280;42456;49.956;20.004;2023-02-19T08:28:43;97772.26;;;7.78;88.44
56568;BME280;42456;49.956;20.004;2023-02-19T08:31:11;97768.48;;;7.82;88.61
56568;BME280;42456;49.956;20.004;2023-02-19T08:33:39;97768.91;;;7.85;88.55
56568;BME280;42456;49.956;20.004;2023-02-19T08:36:07;97772.38;;;7.87;88.18
56568;BME280;42456;49.956;20.004;2023-02-19T08:38:35;97770.97;;;7.90;88.01
56568;BME280;42456;49.956;20.004;2023-02-19T08:41:07;97771.72;;;7.92;88.01
56568;BME280;42456;49.956;20.004;2023-02-19T08:43:35;97771.96;;;7.92;87.85
56568;BME280;42456;49.956;20.004;2023-02-19T08:46:04;97770.02;;;7.95;87.94
56568;BME280;42456;49.956;20.004;2023-02-19T08:48:32;97767.14;;;8.01;88.13
56568;BME280;42456;49.956;20.004;2023-02-19T08:51:01;97772.71;;;8.13;88.15
56568;BME280;42456;49.956;20.004;2023-02-19T08:53:30;97775.92;;;8.23;87.96
56568;BME280;42456;49.956;20.004;2023-02-19T08:55:57;97771.23;;;8.27;87.86
56568;BME280;42456;49.956;20.004;2023-02-19T08:58:24;97772.73;;;8.31;88.34
56568;BME280;42456;49.956;20.004;2023-02-19T09:00:52;97770.86;;;8.35;88.05
56568;BME280;42456;49.956;20.004;2023-02-19T09:03:19;97768.73;;;8.38;87.23
56568;BME280;42456;49.956;20.004;2023-02-19T09:05:46;97767.19;;;8.38;87.21
56568;BME280;42456;49.956;20.004;2023-02-19T09:08:13;97764.83;;;8.36;87.41
56568;BME280;42456;49.956;20.004;2023-02-19T09:10:41;97761.15;;;8.34;87.02
56568;BME280;42456;49.956;20.004;2023-02-19T09:13:08;97762.95;;;8.33;87.15
56568;BME280;42456;49.956;20.004;2023-02-19T09:15:37;97763.77;;;8.34;87.05
56568;BME280;42456;49.956;20.004;2023-02-19T09:18:04;97766.81;;;8.32;86.64
56568;BME280;42456;49.956;20.004;2023-02-19T09:20:31;97763.55;;;8.29;86.36
56568;BME280;42456;49.956;20.004;2023-02-19T09:22:59;97768.28;;;8.24;86.37
56568;BME280;42456;49.956;20.004;2023-02-19T09:25:27;97769.01;;;8.22;86.54
56568;BME280;42456;49.956;20.004;2023-02-19T09:27:55;97770.77;;;8.22;86.42
56568;BME280;42456;49.956;20.004;2023-02-19T09:30:21;97769.14;;;8.24;86.48
56568;BME280;42456;49.956;20.004;2023-02-19T09:32:49;97770.69;;;8.27;86.78
56568;BME280;42456;49.956;20.004;2023-02-19T09:35:15;97771.53;;;8.29;86.57
56568;BME280;42456;49.956;20.004;2023-02-19T09:37:42;97773.90;;;8.31;86.57
56568;BME280;42456;49.956;20.004;2023-02-19T09:40:09;97779.86;;;8.31;86.41
56568;BME280;42456;49.956;20.004;2023-02-19T09:42:39;97781.63;;;8.27;85.87
56568;BME280;42456;49.956;20.004;2023-02-19T09:45:17;97783.27;;;8.23;85.95
56568;BME280;42456;49.956;20.004;2023-02-19T09:47:46;97786.58;;;8.17;85.80
56568;BME280;42456;49.956;20.004;2023-02-19T09:50:16;97789.20;;;8.10;85.60
56568;BME280;42456;49.956;20.004;2023-02-19T09:52:48;97785.23;;;8.03;85.58
56568;BME280;42456;49.956;20.004;2023-02-19T09:57:52;97791.95;;;7.97;85.90
56568;BME280;42456;49.956;20.004;2023-02-19T10:02:53;97789.70;;;7.94;86.11
56568;BME280;42456;49.956;20.004;2023-02-19T10:05:21;97790.48;;;7.93;86.24
56568;BME280;42456;49.956;20.004;2023-02-19T10:07:51;97791.91;;;7.91;86.44
56568;BME280;42456;49.956;20.004;2023-02-19T10:10:24;97792.58;;;7.91;86.41
56568;BME280;42456;49.956;20.004;2023-02-19T10:12:58;97793.55;;;7.91;86.81
56568;BME280;42456;49.956;20.004;2023-02-19T10:15:37;97796.33;;;7.89;86.80
56568;BME280;42456;49.956;20.004;2023-02-19T10:18:04;97792.34;;;7.89;86.94
56568;BME280;42456;49.956;20.004;2023-02-19T10:20:36;97799.27;;;7.88;86.98
56568;BME280;42456;49.956;20.004;2023-02-19T10:23:05;97798.93;;;7.87;87.25
56568;BME280;42456;49.956;20.004;2023-02-19T10:25:40;97797.98;;;7.87;87.00
56568;BME280;42456;49.956;20.004;2023-02-19T10:28:12;97798.93;;;7.85;87.09
56568;BME280;42456;49.956;20.004;2023-02-19T10:30:40;97805.55;;;7.85;87.18
56568;BME280;42456;49.956;20.004;2023-02-19T10:33:13;97808.79;;;7.85;87.22
56568;BME280;42456;49.956;20.004;2023-02-19T10:40:57;97815.95;;;7.83;86.53
56568;BME280;42456;49.956;20.004;2023-02-19T10:43:27;97818.81;;;7.78;86.38
56568;BME280;42456;49.956;20.004;2023-02-19T10:46:06;97827.98;;;7.73;86.39
56568;BME280;42456;49.956;20.004;2023-02-19T10:48:44;97831.38;;;7.69;85.76
56568;BME280;42456;49.956;20.004;2023-02-19T10:51:12;97830.89;;;7.64;85.45
56568;BME280;42456;49.956;20.004;2023-02-19T10:53:49;97832.70;;;7.60;85.17
56568;BME280;42456;49.956;20.004;2023-02-19T10:56:27;97835.84;;;7.56;84.89
56568;BME280;42456;49.956;20.004;2023-02-19T11:02:00;97838.73;;;7.49;85.01
56568;BME280;42456;49.956;20.004;2023-02-19T11:04:32;97843.98;;;7.43;85.00
56568;BME280;42456;49.956;20.004;2023-02-19T11:07:13;97849.98;;;7.40;84.90
56568;BME280;42456;49.956;20.004;2023-02-19T11:09:44;97857.94;;;7.37;84.94
56568;BME280;42456;49.956;20.004;2023-02-19T11:12:13;97859.17;;;7.33;85.13
56568;BME280;42456;49.956;20.004;2023-02-19T11:14:48;97863.71;;;7.30;85.17
56568;BME280;42456;49.956;20.004;2023-02-19T11:17:26;97866.48;;;7.28;85.02
56568;BME280;42456;49.956;20.004;2023-02-19T11:20:07;97877.23;;;7.19;84.15
56568;BME280;42456;49.956;20.004;2023-02-19T11:22:40;97897.91;;;6.91;81.68
56568;BME280;42456;49.956;20.004;2023-02-19T11:27:52;97899.46;;;6.23;80.60
56568;BME280;42456;49.956;20.004;2023-02-19T11:30:43;97901.04;;;5.99;81.62
56568;BME280;42456;49.956;20.004;2023-02-19T11:38:41;97908.91;;;5.55;83.51
56568;BME280;42456;49.956;20.004;2023-02-19T11:46:56;97923.29;;;5.52;83.65
56568;BME280;42456;49.956;20.004;2023-02-19T11:52:21;97930.80;;;5.45;84.11
56568;BME280;42456;49.956;20.004;2023-02-19T11:57:44;97928.27;;;5.41;84.11
56568;BME280;42456;49.956;20.004;2023-02-19T12:00:25;97936.54;;;5.40;84.26
56568;BME280;42456;49.956;20.004;2023-02-19T12:18:56;97977.30;;;5.37;84.55
56568;BME280;42456;49.956;20.004;2023-02-19T12:35:45;97997.41;;;5.34;84.60
56568;BME280;42456;49.956;20.004;2023-02-19T12:38:30;98004.11;;;5.28;84.21
56568;BME280;42456;49.956;20.004;2023-02-19T12:44:01;98009.27;;;5.20;84.32
56568;BME280;42456;49.956;20.004;2023-02-19T12:46:51;98005.13;;;5.19;84.67
56568;BME280;42456;49.956;20.004;2023-02-19T12:52:23;98009.63;;;5.25;84.69
56568;BME280;42456;49.956;20.004;2023-02-19T12:54:53;98010.98;;;5.28;84.97
56568;BME280;42456;49.956;20.004;2023-02-19T12:57:33;98009.10;;;5.32;85.15
56568;BME280;42456;49.956;20.004;2023-02-19T13:00:49;98016.38;;;5.40;85.06
56568;BME280;42456;49.956;20.004;2023-02-19T13:03:08;98022.24;;;5.47;85.16
56568;BME280;42456;49.956;20.004;2023-02-19T13:06:20;98026.61;;;5.50;84.76
56568;BME280;42456;49.956;20.004;2023-02-19T13:08:57;98022.70;;;5.53;84.75
56568;BME280;42456;49.956;20.004;2023-02-19T13:11:40;98026.27;;;5.55;84.39
56568;BME280;42456;49.956;20.004;2023-02-19T13:14:40;98026.03;;;5.61;84.26
56568;BME280;42456;49.956;20.004;2023-02-19T13:17:23;98021.60;;;5.66;83.79
56568;BME280;42456;49.956;20.004;2023-02-19T13:19:55;98022.60;;;5.70;83.35
56568;BME280;42456;49.956;20.004;2023-02-19T13:22:40;98021.92;;;5.70;82.72
56568;BME280;42456;49.956;20.004;2023-02-19T13:25:27;98025.11;;;5.73;83.01
56568;BME280;42456;49.956;20.004;2023-02-19T13:28:12;98035.02;;;5.78;83.28
56568;BME280;42456;49.956;20.004;2023-02-19T13:30:55;98042.45;;;5.82;82.67
56568;BME280;42456;49.956;20.004;2023-02-19T13:33:39;98042.75;;;5.80;82.69
56568;BME280;42456;49.956;20.004;2023-02-19T13:36:15;98044.30;;;5.82;82.65
56568;BME280;42456;49.956;20.004;2023-02-19T13:38:47;98050.19;;;5.84;82.63
56568;BME280;42456;49.956;20.004;2023-02-19T13:41:20;98053.17;;;5.89;82.44
56568;BME280;42456;49.956;20.004;2023-02-19T13:44:03;98062.40;;;5.93;82.50
56568;BME280;42456;49.956;20.004;2023-02-19T13:46:37;98069.39;;;5.96;82.76
56568;BME280;42456;49.956;20.004;2023-02-19T13:51:54;98073.64;;;5.92;81.54
56568;BME280;42456;49.956;20.004;2023-02-19T13:54:24;98077.58;;;5.90;82.09
56568;BME280;42456;49.956;20.004;2023-02-19T13:59:57;98090.96;;;5.84;81.51
56568;BME280;42456;49.956;20.004;2023-02-19T14:02:31;98097.30;;;5.80;81.40
56568;BME280;42456;49.956;20.004;2023-02-19T14:05:05;98104.04;;;5.77;81.40
56568;BME280;42456;49.956;20.004;2023-02-19T14:07:52;98108.91;;;5.72;80.92
56568;BME280;42456;49.956;20.004;2023-02-19T14:14:22;98117.75;;;5.63;81.37
56568;BME280;42456;49.956;20.004;2023-02-19T14:16:59;98125.51;;;5.57;80.80
56568;BME280;42456;49.956;20.004;2023-02-19T14:19:49;98128.61;;;5.51;80.51
56568;BME280;42456;49.956;20.004;2023-02-19T14:25:39;98149.41;;;5.37;80.33
56568;BME280;42456;49.956;20.004;2023-02-19T14:28:27;98149.16;;;5.30;79.32
56568;BME280;42456;49.956;20.004;2023-02-19T14:33:32;98157.41;;;5.18;79.47
56568;BME280;42456;49.956;20.004;2023-02-19T14:36:05;98164.48;;;5.14;79.03
56568;BME280;42456;49.956;20.004;2023-02-19T14:38:50;98172.09;;;5.10;79.21
56568;BME280;42456;49.956;20.004;2023-02-19T14:41:19;98183.48;;;5.08;79.14
56568;BME280;42456;49.956;20.004;2023-02-19T14:43:51;98189.51;;;5.08;79.03
56568;BME280;42456;49.956;20.004;2023-02-19T14:46:33;98201.40;;;5.07;79.33
56568;BME280;42456;49.956;20.004;2023-02-19T14:49:13;98205.29;;;5.04;78.75
56568;BME280;42456;49.956;20.004;2023-02-19T14:51:44;98208.41;;;5.02;78.68
56568;BME280;42456;49.956;20.004;2023-02-19T14:54:16;98209.82;;;4.99;78.94
56568;BME280;42456;49.956;20.004;2023-02-19T14:56:47;98218.38;;;4.94;78.86
56568;BME280;42456;49.956;20.004;2023-02-19T14:59:21;98221.60;;;4.89;78.60
56568;BME280;42456;49.956;20.004;2023-02-19T15:01:53;98220.13;;;4.85;78.31
56568;BME280;42456;49.956;20.004;2023-02-19T15:04:23;98226.20;;;4.80;78.44
56568;BME280;42456;49.956;20.004;2023-02-19T15:06:50;98233.00;;;4.77;79.16
56568;BME280;42456;49.956;20.004;2023-02-19T15:09:19;98231.08;;;4.74;79.05
56568;BME280;42456;49.956;20.004;2023-02-19T15:11:47;98233.08;;;4.69;78.62
56568;BME280;42456;49.956;20.004;2023-02-19T15:14:19;98236.81;;;4.62;78.38
56568;BME280;42456;49.956;20.004;2023-02-19T15:16:50;98245.46;;;4.55;78.27
56568;BME280;42456;49.956;20.004;2023-02-19T15:19:20;98250.94;;;4.49;78.10
56568;BME280;42456;49.956;20.004;2023-02-19T15:21:48;98251.27;;;4.43;78.16
56568;BME280;42456;49.956;20.004;2023-02-19T15:24:17;98262.96;;;4.38;78.35